createdAt,value
2022-10-05T14:49:24.867Z,19.71
2022-10-05T14:51:53.410Z,19.79
2022-10-05T14:54:28.835Z,19.84
2022-10-05T14:57:06.893Z,19.86
2022-10-05T14:59:43.592Z,19.86
2022-10-05T15:02:19.981Z,19.88
2022-10-05T15:05:03.602Z,19.93
2022-10-05T15:07:38.895Z,19.91
2022-10-05T15:10:14.569Z,19.92
2022-10-05T15:12:45.788Z,19.92
2022-10-05T15:15:33.042Z,19.92
2022-10-05T15:18:16.037Z,19.94
2022-10-05T15:20:54.684Z,19.99
2022-10-05T15:23:27.312Z,19.96
2022-10-05T15:26:17.599Z,19.98
2022-10-05T15:29:08.935Z,19.98
2022-10-05T15:31:49.123Z,19.98
2022-10-05T15:34:26.969Z,19.99
2022-10-05T15:37:08.274Z,20.03
2022-10-05T15:39:49.338Z,20.05
2022-10-05T15:42:41.790Z,20.07
2022-10-05T15:45:20.648Z,20.04
2022-10-05T15:48:00.303Z,20.01
2022-10-05T15:50:32.350Z,20.05
2022-10-05T15:53:02.643Z,20.07
2022-10-05T15:55:49.419Z,20.09
2022-10-05T15:58:31.193Z,19.88
2022-10-05T17:02:09.087Z,9.52
2022-10-05T17:04:57.065Z,9.52
2022-10-05T17:07:37.199Z,9.51
2022-10-05T17:10:28.613Z,9.48
2022-10-05T17:13:16.849Z,9.39
2022-10-05T17:16:15.006Z,9.29
2022-10-05T17:18:53.673Z,9.26
2022-10-05T17:21:34.824Z,9.25
2022-10-05T17:24:32.502Z,9.24
2022-10-05T17:27:23.854Z,9.15
2022-10-05T17:29:55.818Z,9.08
2022-10-05T17:32:22.484Z,9.08
2022-10-05T17:35:09.343Z,8.87
2022-10-05T17:37:42.034Z,9.06
2022-10-05T17:40:38.345Z,8.98
2022-10-05T17:43:17.508Z,8.85
2022-10-05T17:45:44.015Z,8.79
2022-10-05T17:48:12.570Z,8.77
2022-10-05T17:50:59.736Z,8.73
2022-10-05T17:54:03.112Z,8.72
2022-10-05T17:56:31.782Z,8.63
2022-10-05T17:58:59.808Z,8.60
2022-10-05T18:01:38.339Z,8.63
2022-10-05T18:04:11.187Z,8.58
2022-10-05T18:07:00.846Z,8.49
2022-10-05T18:09:27.986Z,8.40
2022-10-05T18:12:16.782Z,8.30
2022-10-05T18:15:03.298Z,8.23
2022-10-05T18:17:48.089Z,8.23
2022-10-05T18:20:31.543Z,8.28
2022-10-05T18:23:01.333Z,8.26
2022-10-05T18:25:43.220Z,8.22
2022-10-05T18:28:18.783Z,8.22
2022-10-05T18:30:53.179Z,8.23
2022-10-05T18:33:34.796Z,8.22
2022-10-05T18:36:37.691Z,8.19
2022-10-05T18:39:44.500Z,8.15
2022-10-05T18:42:41.569Z,8.13
2022-10-05T18:45:24.295Z,8.11
2022-10-05T18:47:59.952Z,8.11
2022-10-05T18:51:26.196Z,8.02
2022-10-05T18:54:10.632Z,7.90
2022-10-05T18:56:44.153Z,7.83
2022-10-05T18:59:19.503Z,7.79
2022-10-05T19:02:07.717Z,7.72
2022-10-05T19:04:58.439Z,7.65
2022-10-05T19:07:41.399Z,7.54
2022-10-05T19:10:17.536Z,7.49
2022-10-05T19:12:50.550Z,7.46
2022-10-05T19:16:02.931Z,7.46
2022-10-05T19:19:00.195Z,7.46
2022-10-05T19:22:14.201Z,7.44
2022-10-05T19:24:52.801Z,7.40
2022-10-05T19:27:55.447Z,7.41
2022-10-05T19:30:33.696Z,7.40
2022-10-05T19:33:06.300Z,7.41
2022-10-05T19:35:58.382Z,7.38
2022-10-05T19:38:50.774Z,7.32
2022-10-05T19:41:31.418Z,7.31
2022-10-05T19:44:06.064Z,7.28
2022-10-05T19:46:55.912Z,7.23
2022-10-05T19:49:37.387Z,7.22
2022-10-05T19:52:11.070Z,7.16
2022-10-05T19:54:37.854Z,7.14
2022-10-05T19:57:17.090Z,7.12
2022-10-05T19:59:48.382Z,7.12
2022-10-05T20:02:17.005Z,7.09
2022-10-05T20:04:49.689Z,7.06
2022-10-05T20:07:23.353Z,7.01
2022-10-05T20:10:37.685Z,6.95
2022-10-05T20:13:04.894Z,6.93
2022-10-05T20:15:53.051Z,6.92
2022-10-05T20:19:03.639Z,6.87
2022-10-05T20:21:54.227Z,6.83
2022-10-05T20:24:27.536Z,6.80
2022-10-05T20:27:18.016Z,6.72
2022-10-05T20:29:45.030Z,6.68
2022-10-05T20:32:14.171Z,6.68
2022-10-05T20:34:48.154Z,6.69
2022-10-05T20:37:19.119Z,6.69
2022-10-05T20:39:47.285Z,6.68
2022-10-05T20:42:14.637Z,6.66
2022-10-05T20:44:41.383Z,6.65
2022-10-05T20:47:10.762Z,6.66
2022-10-05T20:49:41.431Z,6.67
2022-10-05T20:52:10.214Z,6.61
2022-10-05T20:54:39.030Z,6.53
2022-10-05T20:57:06.839Z,6.50
2022-10-05T20:59:34.661Z,6.49
2022-10-05T21:02:01.787Z,6.44
2022-10-05T21:04:42.903Z,6.42
2022-10-05T21:07:10.187Z,6.38
2022-10-05T21:09:38.710Z,6.33
2022-10-05T21:12:05.503Z,6.31
2022-10-05T21:14:34.382Z,6.31
2022-10-05T21:17:02.191Z,6.29
2022-10-05T21:19:29.558Z,6.25
2022-10-05T21:21:59.825Z,6.24
2022-10-05T21:24:26.544Z,6.21
2022-10-05T21:26:56.782Z,6.17
2022-10-05T21:29:23.452Z,6.16
2022-10-05T21:31:50.164Z,6.18
2022-10-05T21:34:16.971Z,6.18
2022-10-05T21:36:43.804Z,6.18
2022-10-05T21:39:10.369Z,6.16
2022-10-05T21:41:36.976Z,6.07
2022-10-05T21:44:04.204Z,6.09
2022-10-05T21:46:31.760Z,6.09
2022-10-05T21:48:58.351Z,6.13
2022-10-05T21:51:26.587Z,6.15
2022-10-05T21:54:02.937Z,6.15
2022-10-05T21:56:36.125Z,6.18
2022-10-05T21:59:06.618Z,6.23
2022-10-05T22:01:35.979Z,6.27
2022-10-05T22:04:06.613Z,6.31
2022-10-05T22:06:35.142Z,6.33
2022-10-05T22:09:02.682Z,6.37
2022-10-05T22:11:29.448Z,6.39
2022-10-05T22:14:02.228Z,6.41
2022-10-05T22:16:34.147Z,6.44
2022-10-05T22:19:07.264Z,6.48
2022-10-05T22:21:38.016Z,6.50
2022-10-05T22:24:05.035Z,6.54
2022-10-05T22:26:31.893Z,6.58
2022-10-05T22:28:58.733Z,6.59
2022-10-05T22:31:25.540Z,6.59
2022-10-05T22:33:52.379Z,6.57
2022-10-05T22:36:19.408Z,6.57
2022-10-05T22:38:47.633Z,6.55
2022-10-05T22:41:18.471Z,6.56
2022-10-05T22:43:50.068Z,6.52
2022-10-05T22:46:17.525Z,6.49
2022-10-05T22:48:44.573Z,6.49
2022-10-05T22:51:11.433Z,6.48
2022-10-05T22:53:38.151Z,6.47
2022-10-05T22:56:10.094Z,6.45
2022-10-05T22:58:36.897Z,6.43
2022-10-05T23:01:05.860Z,6.41
2022-10-05T23:03:33.959Z,6.37
2022-10-05T23:06:03.704Z,6.39
2022-10-05T23:08:35.607Z,6.36
2022-10-05T23:11:14.748Z,6.34
2022-10-05T23:13:41.991Z,6.29
2022-10-05T23:16:20.249Z,6.28
2022-10-05T23:18:51.876Z,6.25
2022-10-05T23:21:21.649Z,6.24
2022-10-05T23:23:51.044Z,6.24
2022-10-05T23:26:23.514Z,6.26
2022-10-05T23:28:50.322Z,6.27
2022-10-05T23:31:20.321Z,6.23
2022-10-05T23:33:47.104Z,6.21
2022-10-05T23:36:18.473Z,6.21
2022-10-05T23:38:45.720Z,6.23
2022-10-05T23:41:13.579Z,6.22
2022-10-05T23:43:40.537Z,6.22
2022-10-05T23:46:08.470Z,6.22
2022-10-05T23:48:38.120Z,6.17
2022-10-05T23:51:07.106Z,6.17
2022-10-05T23:53:34.130Z,6.19
2022-10-05T23:56:01.025Z,6.21
2022-10-05T23:58:28.035Z,6.18
